Time;durP1;ratioP1;P1;durP2;ratioP2;P2;SDS_P1;SDS_P2;PMS_P1;PMS_P2;Temp;Humidity;BMP_temperature;BMP_pressure;BME280_temperature;BME280_humidity;BME280_pressure;Samples;Min_cycle;Max_cycle;Signal;HPM_P1;HPM_P2
2022/01/11 00:00:37;;;;;;;;;;;;;;;16.46;44.82;102977.63;5084448;28;19919;-46
2022/01/11 00:03:03;;;;;;;;;;;;;;;16.44;44.86;102979.56;5084786;28;19920;-47
2022/01/11 00:05:33;;;;;;;;;;;;;;;16.43;44.94;102986.72;5084218;28;19913;-44
2022/01/11 00:07:59;;;;;;;;;;;;;;;16.42;44.86;102981.47;5084850;28;19912;-44
2022/01/11 00:10:28;;;;;;;;;;;;;;;16.40;44.82;102978.91;5084730;28;19934;-49
2022/01/11 00:12:54;;;;;;;;;;;;;;;16.38;44.89;102983.50;5084689;28;19966;-44
2022/01/11 00:15:19;;;;;;;;;;;;;;;16.38;45.00;102982.63;5084118;28;19935;-45
2022/01/11 00:17:45;;;;;;;;;;;;;;;16.37;44.92;102989.81;5084690;28;19954;-43
2022/01/11 00:20:13;;;;;;;;;;;;;;;16.36;44.92;102982.75;5065667;28;20023;-46
2022/01/11 00:22:49;;;;;;;;;;;;;;;16.34;44.80;102979.28;5084466;28;19917;-44
2022/01/11 00:25:14;;;;;;;;;;;;;;;16.33;44.96;102982.94;5084456;28;19919;-45
2022/01/11 00:27:39;;;;;;;;;;;;;;;16.32;44.84;102973.16;5084458;28;19912;-49
2022/01/11 00:30:07;;;;;;;;;;;;;;;16.31;44.92;102970.56;5083855;28;19913;-46
2022/01/11 00:32:40;;;;;;;;;;;;;;;16.30;45.00;102972.41;5084494;28;20350;-44
2022/01/11 00:35:10;;;;;;;;;;;;;;;16.29;45.04;102967.13;5065992;28;19948;-45
2022/01/11 00:37:35;;;;;;;;;;;;;;;16.27;44.94;102977.09;5084457;28;19916;-45
2022/01/11 00:40:04;;;;;;;;;;;;;;;16.27;44.96;102982.47;5066126;28;19912;-45
2022/01/11 00:42:29;;;;;;;;;;;;;;;16.26;44.92;102992.34;5084315;28;19924;-45
2022/01/11 00:44:54;;;;;;;;;;;;;;;16.24;44.93;102988.91;5083714;28;19913;-44
2022/01/11 00:47:20;;;;;;;;;;;;;;;16.24;44.91;102994.28;5082766;28;19962;-46
2022/01/11 00:49:45;;;;;;;;;;;;;;;16.23;44.98;102997.94;5082505;28;19919;-42
2022/01/11 00:52:10;;;;;;;;;;;;;;;16.20;44.97;102988.25;5083238;28;19912;-45
2022/01/11 00:54:35;;;;;;;;;;;;;;;16.20;44.88;102984.72;5065817;28;20530;-46
2022/01/11 00:57:01;;;;;;;;;;;;;;;16.19;44.85;102986.53;5083470;28;20375;-45
2022/01/11 00:59:26;;;;;;;;;;;;;;;16.19;44.94;102986.53;5083433;28;19938;-48
2022/01/11 01:01:51;;;;;;;;;;;;;;;16.17;44.79;102988.44;5083548;28;19920;-43
2022/01/11 01:04:16;;;;;;;;;;;;;;;16.15;45.00;102987.69;5083439;28;19941;-44
2022/01/11 01:06:42;;;;;;;;;;;;;;;16.15;44.98;102989.53;5065307;28;19912;-46
2022/01/11 01:09:07;;;;;;;;;;;;;;;16.14;44.85;102983.28;5083283;28;20365;-47
2022/01/11 01:11:32;;;;;;;;;;;;;;;16.14;44.98;102987.78;5083511;28;19923;-46
2022/01/11 01:13:57;;;;;;;;;;;;;;;16.13;44.88;102997.66;5083327;28;19931;-44
2022/01/11 01:16:23;;;;;;;;;;;;;;;16.13;45.00;102992.28;5083011;28;20045;-47
2022/01/11 01:18:48;;;;;;;;;;;;;;;16.13;44.92;102991.44;5083463;28;19922;-45
2022/01/11 01:21:13;;;;;;;;;;;;;;;16.13;44.83;102997.66;5082273;28;19916;-47
2022/01/11 01:23:38;;;;;;;;;;;;;;;16.12;44.91;103001.31;5083554;28;19912;-44
2022/01/11 01:26:05;;;;;;;;;;;;;;;16.12;44.90;103006.66;5082590;28;19916;-43
2022/01/11 01:28:30;;;;;;;;;;;;;;;16.12;44.88;103009.34;5083254;28;20392;-44
2022/01/11 01:31:00;;;;;;;;;;;;;;;16.10;44.77;103005.94;5082830;28;19913;-46
2022/01/11 01:33:25;;;;;;;;;;;;;;;16.11;44.80;103010.31;5083185;28;19920;-44
2022/01/11 01:35:56;;;;;;;;;;;;;;;16.10;44.83;103019.34;5082415;28;19921;-44
2022/01/11 01:38:24;;;;;;;;;;;;;;;16.09;44.87;103014.06;5089295;28;19919;-44
2022/01/11 01:40:50;;;;;;;;;;;;;;;16.08;44.79;103028.44;5083236;28;19923;-44
2022/01/11 01:43:15;;;;;;;;;;;;;;;16.07;44.91;103038.31;5083295;28;19912;-45
2022/01/11 01:45:43;;;;;;;;;;;;;;;16.06;44.90;103035.75;5039205;28;20352;-44
2022/01/11 01:48:08;;;;;;;;;;;;;;;16.05;44.91;103039.34;5063174;28;19920;-46
2022/01/11 01:50:34;;;;;;;;;;;;;;;16.04;44.74;103045.69;5062114;28;19913;-45
2022/01/11 01:52:59;;;;;;;;;;;;;;;16.03;44.93;103043.97;5063115;28;19920;-46
2022/01/11 01:55:25;;;;;;;;;;;;;;;16.03;44.84;103038.59;5073674;28;20635;-48
2022/01/11 01:57:50;;;;;;;;;;;;;;;16.02;44.77;103035.06;5083102;28;19944;-44
2022/01/11 02:00:16;;;;;;;;;;;;;;;16.03;44.72;103034.09;5082663;28;19942;-46
2022/01/11 02:02:41;;;;;;;;;;;;;;;16.02;44.67;103037.75;5083141;28;19920;-48
2022/01/11 02:05:07;;;;;;;;;;;;;;;16.01;44.79;103038.69;5082499;28;19931;-44
2022/01/11 02:07:35;;;;;;;;;;;;;;;16.02;44.66;103044.94;5083047;28;20429;-46
2022/01/11 02:10:01;;;;;;;;;;;;;;;16.01;44.70;103046.75;5085546;28;19919;-44
2022/01/11 02:12:27;;;;;;;;;;;;;;;16.00;44.78;103045.88;5087250;28;19951;-44
2022/01/11 02:14:52;;;;;;;;;;;;;;;15.99;44.59;103044.16;5086265;28;19921;-46
2022/01/11 02:17:17;;;;;;;;;;;;;;;15.92;44.71;103023.19;5086910;28;19917;-46
2022/01/11 02:19:42;;;;;;;;;;;;;;;15.99;44.76;103038.78;5086596;28;19939;-48
2022/01/11 02:22:07;;;;;;;;;;;;;;;15.98;44.74;103039.75;5086267;28;19912;-46
2022/01/11 02:24:33;;;;;;;;;;;;;;;15.98;44.64;103038.91;5086238;28;19920;-46
2022/01/11 02:26:59;;;;;;;;;;;;;;;15.97;44.68;103038.03;5086992;28;19920;-44
2022/01/11 02:29:24;;;;;;;;;;;;;;;15.96;44.62;103036.31;5086403;28;19912;-47
2022/01/11 02:31:49;;;;;;;;;;;;;;;15.96;44.55;103038.13;5068561;28;19908;-46
2022/01/11 02:34:14;;;;;;;;;;;;;;;15.95;44.60;103037.25;5086475;28;19916;-43
2022/01/11 02:36:39;;;;;;;;;;;;;;;15.95;44.56;103039.94;5085643;28;20289;-46
2022/01/11 02:39:05;;;;;;;;;;;;;;;15.94;44.61;103030.19;5086570;28;19912;-48
2022/01/11 02:41:30;;;;;;;;;;;;;;;15.93;44.51;103024.94;5086575;28;19913;-44
2022/01/11 02:43:55;;;;;;;;;;;;;;;15.92;44.51;103018.66;5086448;28;19913;-48
2022/01/11 02:46:21;;;;;;;;;;;;;;;15.92;44.49;103026.72;5086007;28;19913;-48
2022/01/11 02:48:47;;;;;;;;;;;;;;;15.91;44.55;103024.16;5085067;28;19930;-44
2022/01/11 02:51:12;;;;;;;;;;;;;;;15.91;44.49;103027.69;5067433;28;19962;-46
2022/01/11 02:53:38;;;;;;;;;;;;;;;15.89;44.63;103032.31;5086104;28;20003;-45
2022/01/11 02:56:03;;;;;;;;;;;;;;;15.89;44.50;103026.94;5085704;28;19924;-43
2022/01/11 02:58:29;;;;;;;;;;;;;;;15.89;44.63;103036.81;5086074;28;19916;-44
2022/01/11 03:00:54;;;;;;;;;;;;;;;15.88;44.63;103038.59;5085535;28;19916;-45
2022/01/11 03:03:23;;;;;;;;;;;;;;;15.87;44.66;103033.34;5086208;28;19933;-44
2022/01/11 03:05:50;;;;;;;;;;;;;;;15.86;44.64;103053.94;5085471;28;19912;-45
2022/01/11 03:08:15;;;;;;;;;;;;;;;15.85;44.54;103048.69;5085916;28;19919;-43
2022/01/11 03:10:41;;;;;;;;;;;;;;;15.84;44.51;103050.47;5086016;28;19920;-44
2022/01/11 03:13:06;;;;;;;;;;;;;;;15.84;44.49;103055.84;5085989;28;19944;-45
2022/01/11 03:15:31;;;;;;;;;;;;;;;15.82;44.54;103047.06;5085370;28;19919;-47
2022/01/11 03:17:57;;;;;;;;;;;;;;;15.81;44.62;103048.03;5085916;28;20332;-45
2022/01/11 03:20:22;;;;;;;;;;;;;;;15.81;44.68;103047.16;5084445;28;19920;-49
2022/01/11 03:22:47;;;;;;;;;;;;;;;15.79;44.49;103049.91;5085680;28;19913;-45
2022/01/11 03:25:13;;;;;;;;;;;;;;;15.79;44.49;103046.38;5067130;28;20020;-43
2022/01/11 03:27:38;;;;;;;;;;;;;;;15.78;44.51;103050.03;5085915;28;19912;-46
2022/01/11 03:30:04;;;;;;;;;;;;;;;15.75;44.59;103046.56;5085038;28;20012;-49
2022/01/11 03:32:29;;;;;;;;;;;;;;;15.75;44.53;103051.06;5085710;28;19917;-48
2022/01/11 03:34:54;;;;;;;;;;;;;;;15.74;44.64;103050.22;5085320;28;19919;-45
2022/01/11 03:37:20;;;;;;;;;;;;;;;15.74;44.66;103055.56;5084955;28;20014;-43
2022/01/11 03:39:45;;;;;;;;;;;;;;;15.74;44.65;103058.25;5085403;28;19942;-42
2022/01/11 03:42:10;;;;;;;;;;;;;;;15.74;44.59;103052.03;5085421;28;19913;-43
2022/01/11 03:44:35;;;;;;;;;;;;;;;15.74;44.50;103058.25;5085018;28;19912;-47
2022/01/11 03:47:01;;;;;;;;;;;;;;;15.73;44.59;103053.00;5085361;28;19912;-43
2022/01/11 03:49:26;;;;;;;;;;;;;;;15.71;44.60;103054.88;5084926;28;19920;-45
2022/01/11 03:51:51;;;;;;;;;;;;;;;15.69;44.57;103055.00;5084661;28;19935;-44
2022/01/11 03:54:23;;;;;;;;;;;;;;;15.67;44.55;103050.69;5084897;28;19913;-45
2022/01/11 03:56:49;;;;;;;;;;;;;;;15.67;44.61;103050.69;5084965;28;19970;-45
2022/01/11 03:59:14;;;;;;;;;;;;;;;15.65;44.65;103050.78;5084937;28;19916;-43
2022/01/11 04:01:39;;;;;;;;;;;;;;;15.65;44.67;103050.78;5083383;28;19923;-45
2022/01/11 04:04:05;;;;;;;;;;;;;;;15.64;44.66;103043.69;5084825;28;20325;-45
2022/01/11 04:06:30;;;;;;;;;;;;;;;15.63;44.51;103051.78;5084526;28;19916;-44
2022/01/11 04:08:55;;;;;;;;;;;;;;;15.61;44.56;103049.22;5083602;28;19916;-42
2022/01/11 04:11:20;;;;;;;;;;;;;;;15.61;44.65;103045.69;5084915;28;19988;-43
2022/01/11 04:13:46;;;;;;;;;;;;;;;15.62;44.67;103050.94;5084681;28;19921;-45
2022/01/11 04:16:11;;;;;;;;;;;;;;;15.62;44.63;103050.94;5084247;28;19951;-45
2022/01/11 04:18:36;;;;;;;;;;;;;;;15.62;44.54;103060.78;5084959;28;19912;-46
2022/01/11 04:21:02;;;;;;;;;;;;;;;15.61;44.49;103067.97;5065737;28;20258;-46
2022/01/11 04:23:27;;;;;;;;;;;;;;;15.60;44.67;103068.94;5084734;28;19980;-47
2022/01/11 04:25:53;;;;;;;;;;;;;;;15.59;44.47;103069.91;5084049;28;19927;-45
2022/01/11 04:28:18;;;;;;;;;;;;;;;15.58;44.46;103057.44;5066696;28;19912;-44
2022/01/11 04:30:43;;;;;;;;;;;;;;;15.58;44.54;103052.06;5083193;28;19983;-44
2022/01/11 04:33:08;;;;;;;;;;;;;;;15.57;44.54;103044.13;5084409;28;19966;-45
2022/01/11 04:35:34;;;;;;;;;;;;;;;15.57;44.54;103049.50;5083463;28;19972;-48
2022/01/11 04:37:59;;;;;;;;;;;;;;;15.57;44.52;103049.50;5084261;28;19913;-46
2022/01/11 04:40:24;;;;;;;;;;;;;;;15.57;44.58;103060.22;5084148;28;19919;-45
2022/01/11 04:42:49;;;;;;;;;;;;;;;15.56;44.43;103058.50;5084058;28;19916;-46
2022/01/11 04:45:15;;;;;;;;;;;;;;;15.55;44.57;103063.00;5083495;28;20008;-49
2022/01/11 04:47:40;;;;;;;;;;;;;;;15.56;44.44;103058.50;5084136;28;19912;-47
2022/01/11 04:50:06;;;;;;;;;;;;;;;15.56;44.35;103056.69;5083473;28;19913;-45
2022/01/11 04:52:31;;;;;;;;;;;;;;;15.56;44.48;103062.03;5083952;28;19931;-48
2022/01/11 04:54:56;;;;;;;;;;;;;;;15.56;44.41;103061.19;5083466;28;19916;-43
2022/01/11 04:57:21;;;;;;;;;;;;;;;15.56;44.45;103063.88;5084019;28;20373;-43
2022/01/11 04:59:46;;;;;;;;;;;;;;;15.56;44.46;103066.56;5083376;28;19912;-48
2022/01/11 05:02:11;;;;;;;;;;;;;;;15.55;44.55;103071.06;5083934;28;19905;-46
2022/01/11 05:04:37;;;;;;;;;;;;;;;15.54;44.37;103072.00;5083532;28;19934;-46
2022/01/11 05:07:02;;;;;;;;;;;;;;;15.54;44.31;103072.00;5083386;28;19920;-47
2022/01/11 05:09:27;;;;;;;;;;;;;;;15.54;44.38;103074.66;5082437;28;19944;-44
2022/01/11 05:11:52;;;;;;;;;;;;;;;15.53;44.37;103075.63;5083439;28;19916;-43
2022/01/11 05:14:17;;;;;;;;;;;;;;;15.54;44.32;103079.16;5083382;28;19944;-47
2022/01/11 05:16:43;;;;;;;;;;;;;;;15.55;44.30;103080.88;5083237;28;20404;-47
2022/01/11 05:19:12;;;;;;;;;;;;;;;15.55;44.24;103073.75;5065023;28;21219;-45
2022/01/11 05:21:38;;;;;;;;;;;;;;;15.45;44.30;103059.16;5082312;28;19916;-44
2022/01/11 05:24:04;;;;;;;;;;;;;;;15.56;44.38;103074.59;5071156;28;20114;-49
2022/01/11 05:26:29;;;;;;;;;;;;;;;15.55;44.36;103064.81;5074979;28;19938;-48
2022/01/11 05:28:54;;;;;;;;;;;;;;;15.56;44.30;103074.59;5080672;28;19963;-45
2022/01/11 05:31:19;;;;;;;;;;;;;;;15.56;44.28;103074.59;5062820;28;20405;-46
2022/01/11 05:33:44;;;;;;;;;;;;;;;15.56;44.28;103074.59;5077204;28;19912;-44
2022/01/11 05:36:09;;;;;;;;;;;;;;;15.56;44.29;103075.47;5071986;28;19969;-43
2022/01/11 05:38:35;;;;;;;;;;;;;;;15.55;44.31;103076.41;5064962;28;19912;-44
2022/01/11 05:41:00;;;;;;;;;;;;;;;15.57;44.36;103073.63;5082954;28;19947;-46
2022/01/11 05:43:25;;;;;;;;;;;;;;;15.58;44.30;103083.41;5082772;28;19917;-45
2022/01/11 05:45:50;;;;;;;;;;;;;;;15.57;44.49;103085.22;5082557;28;19920;-45
2022/01/11 05:48:15;;;;;;;;;;;;;;;15.58;44.35;103086.94;5074238;28;19924;-45
2022/01/11 05:50:43;;;;;;;;;;;;;;;15.59;44.41;103085.13;5068049;28;19993;-45
2022/01/11 05:53:08;;;;;;;;;;;;;;;15.59;44.49;103080.63;5082505;28;19963;-45
2022/01/11 05:55:33;;;;;;;;;;;;;;;15.60;44.46;103087.72;5081776;28;19974;-45
2022/01/11 05:57:58;;;;;;;;;;;;;;;15.62;44.34;103092.97;5079933;28;19920;-45
2022/01/11 06:00:23;;;;;;;;;;;;;;;15.62;44.50;103092.97;5079233;28;19913;-45
2022/01/11 06:02:52;;;;;;;;;;;;;;;15.63;44.50;103094.69;5073505;28;19984;-44
2022/01/11 06:05:17;;;;;;;;;;;;;;;15.63;44.48;103089.31;5080102;28;19927;-45
2022/01/11 06:07:43;;;;;;;;;;;;;;;15.64;44.52;103093.75;5079753;28;19920;-46
2022/01/11 06:10:08;;;;;;;;;;;;;;;15.65;44.58;103098.19;5074413;28;19919;-47
2022/01/11 06:12:33;;;;;;;;;;;;;;;15.64;44.59;103102.69;5077687;28;19923;-45
2022/01/11 06:14:59;;;;;;;;;;;;;;;15.66;44.60;103105.28;5073521;28;19921;-44
2022/01/11 06:17:24;;;;;;;;;;;;;;;15.65;44.59;103117.81;5076690;28;19987;-46
2022/01/11 06:19:49;;;;;;;;;;;;;;;15.66;44.63;103113.31;5079433;28;19980;-46
2022/01/11 06:22:14;;;;;;;;;;;;;;;15.66;44.65;103124.03;5079850;28;19912;-43
2022/01/11 06:24:39;;;;;;;;;;;;;;;15.66;44.71;103124.03;5072651;28;19930;-46
2022/01/11 06:27:04;;;;;;;;;;;;;;;15.67;44.59;103131.13;5073925;28;20534;-44
2022/01/11 06:29:30;;;;;;;;;;;;;;;15.67;44.72;103132.03;5079378;28;19912;-45
2022/01/11 06:31:55;;;;;;;;;;;;;;;15.67;44.75;103129.34;5078766;28;19913;-43
2022/01/11 06:34:20;;;;;;;;;;;;;;;15.68;44.72;103127.50;5073232;28;19924;-44
2022/01/11 06:36:45;;;;;;;;;;;;;;;15.69;44.68;103126.56;5082146;28;19951;-43
2022/01/11 06:39:10;;;;;;;;;;;;;;;15.69;44.65;103131.91;5082533;28;19913;-44
2022/01/11 06:41:35;;;;;;;;;;;;;;;15.70;44.69;103134.50;5081101;28;19920;-44
2022/01/11 06:44:01;;;;;;;;;;;;;;;15.72;44.73;103145.16;5073697;28;19920;-45
2022/01/11 06:46:26;;;;;;;;;;;;;;;15.72;44.74;103145.16;5075997;28;19912;-47
2022/01/11 06:48:51;;;;;;;;;;;;;;;15.73;44.72;103157.59;5082001;28;19927;-41
2022/01/11 06:51:17;;;;;;;;;;;;;;;15.75;44.78;103158.34;5066360;28;19913;-43
2022/01/11 06:53:42;;;;;;;;;;;;;;;15.75;44.77;103158.34;5075131;28;19916;-42
2022/01/11 06:56:07;;;;;;;;;;;;;;;15.74;44.77;103154.81;5076877;28;19917;-43
2022/01/11 06:58:32;;;;;;;;;;;;;;;15.75;44.74;103161.88;5065999;28;19923;-43
2022/01/11 07:00:57;;;;;;;;;;;;;;;15.77;44.70;103167.19;5078609;28;19920;-42
2022/01/11 07:03:23;;;;;;;;;;;;;;;15.78;44.72;103166.22;5080797;28;20696;-44
2022/01/11 07:05:48;;;;;;;;;;;;;;;15.77;44.87;103161.81;5083122;28;19920;-46
2022/01/11 07:08:13;;;;;;;;;;;;;;;15.80;44.77;103166.13;5080940;28;19944;-43
2022/01/11 07:10:38;;;;;;;;;;;;;;;15.81;44.75;103157.13;5080495;28;19916;-47
2022/01/11 07:13:04;;;;;;;;;;;;;;;15.82;44.84;103158.84;5080740;28;20162;-46
2022/01/11 07:15:29;;;;;;;;;;;;;;;15.84;44.86;103159.59;5083168;28;19920;-44
2022/01/11 07:17:54;;;;;;;;;;;;;;;15.84;44.99;103165.81;5083122;28;19947;-44
2022/01/11 07:20:20;;;;;;;;;;;;;;;15.86;44.95;103163.06;5082699;28;19917;-47
2022/01/11 07:22:45;;;;;;;;;;;;;;;15.87;44.94;103171.03;5082972;28;19978;-42
2022/01/11 07:25:10;;;;;;;;;;;;;;;15.90;45.02;103184.25;5083018;28;20412;-48
2022/01/11 07:27:35;;;;;;;;;;;;;;;15.90;44.89;103186.94;5082810;28;20323;-42
2022/01/11 07:30:02;;;;;;;;;;;;;;;15.91;45.08;103185.13;5081944;28;19960;-46
2022/01/11 07:32:27;;;;;;;;;;;;;;;15.93;44.91;103181.38;5082606;28;19920;-47
2022/01/11 07:34:52;;;;;;;;;;;;;;;15.97;44.81;103177.56;5082959;28;19921;-46
2022/01/11 07:37:17;;;;;;;;;;;;;;;16.05;44.88;103170.84;5082062;28;19947;-43
2022/01/11 07:39:43;;;;;;;;;;;;;;;16.12;44.77;103180.25;5083349;28;19942;-43
2022/01/11 07:42:08;;;;;;;;;;;;;;;16.18;44.50;103169.13;5083068;28;19912;-45
2022/01/11 07:44:33;;;;;;;;;;;;;;;16.21;44.44;103169.78;5082583;28;19924;-44
2022/01/11 07:46:59;;;;;;;;;;;;;;;16.27;44.46;103175.72;5082198;28;19916;-44
2022/01/11 07:49:24;;;;;;;;;;;;;;;16.30;44.23;103178.22;5082947;28;20369;-47
2022/01/11 07:51:50;;;;;;;;;;;;;;;16.33;44.28;103178.91;5082148;28;19916;-45
2022/01/11 07:54:15;;;;;;;;;;;;;;;16.37;44.25;103182.28;5082636;28;19916;-41
2022/01/11 07:56:40;;;;;;;;;;;;;;;16.40;44.00;103184.78;5064036;28;20688;-43
2022/01/11 07:59:05;;;;;;;;;;;;;;;16.42;44.11;103188.19;5082545;28;19966;-43
2022/01/11 08:01:31;;;;;;;;;;;;;;;16.43;44.01;103193.47;5082339;28;19973;-46
2022/01/11 08:03:57;;;;;;;;;;;;;;;16.47;44.08;103194.13;5066852;28;19912;-45
2022/01/11 08:06:22;;;;;;;;;;;;;;;16.49;43.95;103189.56;5080595;28;19988;-40
2022/01/11 08:08:47;;;;;;;;;;;;;;;16.52;43.76;103185.78;5081903;28;19922;-45
2022/01/11 08:11:12;;;;;;;;;;;;;;;16.53;43.79;103188.41;5082467;28;19912;-40
2022/01/11 08:13:38;;;;;;;;;;;;;;;16.55;43.64;103186.47;5064046;28;19964;-41
2022/01/11 08:16:03;;;;;;;;;;;;;;;16.58;43.63;103183.59;5064300;28;20639;-42
2022/01/11 08:18:28;;;;;;;;;;;;;;;16.60;43.57;103195.09;5063312;28;19916;-40
2022/01/11 08:20:53;;;;;;;;;;;;;;;16.64;43.60;103202.00;5081243;28;20412;-45
2022/01/11 08:23:19;;;;;;;;;;;;;;;16.67;43.40;103200.94;5082165;28;19912;-42
2022/01/11 08:25:44;;;;;;;;;;;;;;;16.69;43.33;103215.13;5081997;28;19966;-42
2022/01/11 08:28:13;;;;;;;;;;;;;;;16.71;43.16;103221.28;5081424;28;19924;-43
2022/01/11 08:30:38;;;;;;;;;;;;;;;16.73;43.18;103219.38;5081832;28;20011;-45
2022/01/11 08:33:04;;;;;;;;;;;;;;;16.77;43.12;103220.91;5082527;28;19932;-43
2022/01/11 08:35:30;;;;;;;;;;;;;;;16.80;43.06;103223.41;5080696;28;19955;-50
2022/01/11 08:37:55;;;;;;;;;;;;;;;16.85;43.03;103223.97;5081445;28;19925;-43
2022/01/11 08:40:20;;;;;;;;;;;;;;;16.89;42.88;103216.56;5081772;28;20015;-44
2022/01/11 08:42:46;;;;;;;;;;;;;;;16.94;42.78;103212.63;5079847;28;19922;-43
2022/01/11 08:45:11;;;;;;;;;;;;;;;16.99;42.55;103213.19;5074218;28;20402;-42
2022/01/11 08:47:36;;;;;;;;;;;;;;;17.07;42.50;103218.06;5077508;28;19912;-43
2022/01/11 08:50:03;;;;;;;;;;;;;;;17.16;42.27;103222.84;5081642;28;19919;-42
2022/01/11 08:52:29;;;;;;;;;;;;;;;17.26;42.27;103217.72;5081288;28;19952;-44
2022/01/11 08:54:55;;;;;;;;;;;;;;;17.32;41.97;103220.00;5081545;28;19938;-49
2022/01/11 08:57:20;;;;;;;;;;;;;;;17.37;41.93;103220.53;5063004;28;19920;-47
2022/01/11 08:59:45;;;;;;;;;;;;;;;17.41;41.85;103227.44;5079679;28;20404;-48
2022/01/11 09:02:11;;;;;;;;;;;;;;;17.46;41.80;103227.16;5079327;28;20510;-43
2022/01/11 09:04:36;;;;;;;;;;;;;;;17.55;41.61;103213.09;5081548;28;19916;-42
2022/01/11 09:07:01;;;;;;;;;;;;;;;17.71;41.43;103219.16;5080127;28;20039;-42
2022/01/11 09:09:28;;;;;;;;;;;;;;;17.95;41.01;103224.69;5081303;28;20613;-44
2022/01/11 09:11:53;;;;;;;;;;;;;;;18.21;40.60;103222.00;5081388;28;19916;-41
2022/01/11 09:14:18;;;;;;;;;;;;;;;18.34;40.32;103222.88;5075986;28;20027;-44
2022/01/11 09:16:44;;;;;;;;;;;;;;;18.35;40.23;103224.63;5077029;28;19924;-43
2022/01/11 09:19:09;;;;;;;;;;;;;;;18.31;40.28;103216.84;5062960;28;19916;-43
2022/01/11 09:21:34;;;;;;;;;;;;;;;18.25;40.28;103215.44;5080134;28;20199;-44
2022/01/11 09:24:00;;;;;;;;;;;;;;;18.21;40.38;103214.78;5080967;28;19912;-40
2022/01/11 09:26:25;;;;;;;;;;;;;;;18.20;40.18;103217.59;5080281;28;19976;-43
2022/01/11 09:28:51;;;;;;;;;;;;;;;18.18;40.48;103220.41;5079366;28;19942;-43
2022/01/11 09:31:16;;;;;;;;;;;;;;;18.15;40.42;103227.84;5080618;28;19912;-42
2022/01/11 09:33:41;;;;;;;;;;;;;;;18.10;40.61;103222.78;5081410;28;19979;-43
2022/01/11 09:36:06;;;;;;;;;;;;;;;18.07;40.50;103227.50;5076244;28;19921;-47
2022/01/11 09:38:31;;;;;;;;;;;;;;;18.01;40.68;103226.13;5080187;28;19917;-49
2022/01/11 09:40:57;;;;;;;;;;;;;;;17.98;40.81;103239.78;5080837;28;19919;-51
2022/01/11 09:43:23;;;;;;;;;;;;;;;17.95;40.84;103240.84;5062933;28;20019;-44
2022/01/11 09:45:49;;;;;;;;;;;;;;;17.94;41.02;103241.81;5080075;28;19923;-39
2022/01/11 09:48:14;;;;;;;;;;;;;;;17.92;41.10;103238.34;5080481;28;19921;-44
2022/01/11 09:50:39;;;;;;;;;;;;;;;17.91;40.83;103233.94;5062353;28;19916;-42
2022/01/11 09:53:04;;;;;;;;;;;;;;;17.90;41.09;103234.91;5063028;28;19912;-41
2022/01/11 09:55:29;;;;;;;;;;;;;;;17.89;40.96;103230.50;5080420;28;19920;-45
2022/01/11 09:57:55;;;;;;;;;;;;;;;17.88;41.18;103231.50;5080188;28;19947;-41
2022/01/11 10:00:20;;;;;;;;;;;;;;;17.88;41.10;103227.91;5080094;28;19912;-39
2022/01/11 10:02:46;;;;;;;;;;;;;;;17.88;41.11;103231.50;5079892;28;19917;-42
2022/01/11 10:05:12;;;;;;;;;;;;;;;17.88;41.15;103230.59;5081376;28;19916;-42
2022/01/11 10:07:40;;;;;;;;;;;;;;;17.88;41.20;103226.09;5082902;28;19919;-43
2022/01/11 10:10:07;;;;;;;;;;;;;;;17.87;41.06;103229.75;5081552;28;19984;-43
2022/01/11 10:12:48;;;;;;;;;;;;;;;17.87;41.00;103223.50;5064630;28;19912;-43
2022/01/11 10:15:14;;;;;;;;;;;;;;;17.85;41.03;103226.31;5081929;28;19920;-45
2022/01/11 10:17:40;;;;;;;;;;;;;;;17.86;41.06;103224.47;5082561;28;19912;-43
2022/01/11 10:20:07;;;;;;;;;;;;;;;17.84;40.96;103221.91;5082567;28;19913;-42
2022/01/11 10:22:33;;;;;;;;;;;;;;;17.85;40.99;103220.06;5074417;28;20001;-42
2022/01/11 10:24:59;;;;;;;;;;;;;;;17.84;41.16;103227.28;5078256;28;20428;-42
2022/01/11 10:27:26;;;;;;;;;;;;;;;17.83;41.30;103216.59;5062591;28;19931;-40
2022/01/11 10:29:51;;;;;;;;;;;;;;;17.84;41.39;103211.13;5082818;28;19912;-43
2022/01/11 10:32:18;;;;;;;;;;;;;;;17.84;41.44;103211.13;5084182;28;19934;-45
2022/01/11 10:34:47;;;;;;;;;;;;;;;17.84;41.39;103215.63;5082074;28;20317;-45
2022/01/11 10:37:12;;;;;;;;;;;;;;;17.85;41.53;103210.16;5081822;28;20022;-42
2022/01/11 10:39:38;;;;;;;;;;;;;;;17.87;41.48;103210.03;5083963;28;20480;-48
2022/01/11 10:42:04;;;;;;;;;;;;;;;17.87;41.52;103213.59;5083871;28;20429;-45
2022/01/11 10:44:50;;;;;;;;;;;;;;;17.90;41.40;103213.41;5083603;28;19923;-48
2022/01/11 10:47:16;;;;;;;;;;;;;;;17.93;41.31;103212.34;5079719;28;19935;-47
2022/01/11 10:49:41;;;;;;;;;;;;;;;17.95;41.36;103216.63;5082766;28;19955;-44
2022/01/11 10:52:20;;;;;;;;;;;;;;;17.98;41.39;103224.50;5083154;28;19913;-50
2022/01/11 10:54:45;;;;;;;;;;;;;;;18.02;41.35;103224.28;5083398;28;19921;-48
2022/01/11 10:57:22;;;;;;;;;;;;;;;18.04;41.15;103227.72;5082901;28;19955;-43
2022/01/11 11:00:04;;;;;;;;;;;;;;;18.06;41.14;103223.97;5066094;28;19912;-48
2022/01/11 11:02:29;;;;;;;;;;;;;;;18.09;41.42;103221.03;5080969;28;19916;-52
2022/01/11 11:04:55;;;;;;;;;;;;;;;18.10;41.32;103228.16;5082550;28;19942;-42
2022/01/11 11:07:23;;;;;;;;;;;;;;;18.12;41.15;103234.28;5048607;28;19920;-46
2022/01/11 11:09:50;;;;;;;;;;;;;;;18.13;41.12;103232.47;5083493;28;19963;-43
2022/01/11 11:12:16;;;;;;;;;;;;;;;18.14;41.20;103228.81;5082359;28;19920;-42
2022/01/11 11:14:52;;;;;;;;;;;;;;;18.14;41.04;103235.06;5067326;28;19931;-43
2022/01/11 11:17:32;;;;;;;;;;;;;;;18.15;41.01;103235.94;5065263;28;19917;-42
2022/01/11 11:20:02;;;;;;;;;;;;;;;18.15;41.26;103238.63;5080294;28;19961;-44
2022/01/11 11:22:28;;;;;;;;;;;;;;;18.15;41.28;103236.78;5082719;28;19912;-43
2022/01/11 11:24:53;;;;;;;;;;;;;;;18.16;41.04;103240.34;5084041;28;19935;-45
2022/01/11 11:27:20;;;;;;;;;;;;;;;18.16;41.20;103237.63;5085389;28;19912;-44
2022/01/11 11:29:45;;;;;;;;;;;;;;;18.13;41.18;103238.69;5085668;28;19912;-47
2022/01/11 11:32:11;;;;;;;;;;;;;;;18.11;41.17;103234.41;5085225;28;20361;-45
2022/01/11 11:34:36;;;;;;;;;;;;;;;17.90;41.01;103205.31;5085027;28;19924;-43
2022/01/11 11:37:05;;;;;;;;;;;;;;;18.05;41.06;103234.81;5066798;28;19916;-43
2022/01/11 11:39:30;;;;;;;;;;;;;;;18.02;41.18;103235.06;5085211;28;20210;-48
2022/01/11 11:41:55;;;;;;;;;;;;;;;17.99;41.25;103231.59;5083995;28;20447;-47
2022/01/11 11:44:24;;;;;;;;;;;;;;;17.97;41.24;103232.69;5080627;28;19917;-43
2022/01/11 11:46:54;;;;;;;;;;;;;;;17.97;41.16;103236.22;5081493;28;19935;-44
2022/01/11 11:49:38;;;;;;;;;;;;;;;17.97;41.13;103230.00;5084707;28;19983;-48
2022/01/11 11:52:14;;;;;;;;;;;;;;;17.98;41.06;103232.56;5082393;28;19912;-45
2022/01/11 11:54:56;;;;;;;;;;;;;;;17.98;40.99;103232.56;5079710;28;19921;-44
2022/01/11 11:57:23;;;;;;;;;;;;;;;17.99;41.10;103234.28;5080264;28;19920;-50
2022/01/11 11:59:51;;;;;;;;;;;;;;;18.00;41.10;103224.38;5078969;28;19913;-48
2022/01/11 12:02:30;;;;;;;;;;;;;;;18.02;41.08;103221.59;5079925;28;19970;-48
2022/01/11 12:04:55;;;;;;;;;;;;;;;18.02;40.98;103218.91;5075333;28;19943;-47
2022/01/11 12:07:32;;;;;;;;;;;;;;;18.02;41.22;103217.06;5072429;28;20016;-45
2022/01/11 12:09:58;;;;;;;;;;;;;;;18.02;41.18;103210.81;5077593;28;19935;-44
2022/01/11 12:12:39;;;;;;;;;;;;;;;18.02;41.10;103206.31;5077494;28;19975;-44
2022/01/11 12:15:23;;;;;;;;;;;;;;;18.04;41.01;103216.94;5077371;28;19925;-43
2022/01/11 12:17:48;;;;;;;;;;;;;;;18.04;41.19;103225.88;5080947;28;19917;-43
2022/01/11 12:20:32;;;;;;;;;;;;;;;18.03;41.02;103223.31;5070035;28;19923;-45
2022/01/11 12:22:57;;;;;;;;;;;;;;;18.03;41.15;103224.16;5079351;28;19912;-48
2022/01/11 12:25:27;;;;;;;;;;;;;;;18.04;40.99;103222.34;5074796;28;19922;-42
2022/01/11 12:28:18;;;;;;;;;;;;;;;18.04;41.08;103233.97;5081486;28;19988;-46
2022/01/11 12:30:44;;;;;;;;;;;;;;;18.05;41.17;103221.34;5078653;28;20011;-40